Time;durP1;ratioP1;P1;durP2;ratioP2;P2;SDS_P1;SDS_P2;PMS_P1;PMS_P2;Temp;Humidity;BMP_temperature;BMP_pressure;BME280_temperature;BME280_humidity;BME280_pressure;Samples;Min_cycle;Max_cycle;Signal;HPM_P1;HPM_P2
2022/03/02 00:01:43;;;;;;;;;;;13.20;99.90;;;;;;4973130;28;20479;-88
2022/03/02 00:04:08;;;;;;;;;;;13.20;99.90;;;;;;4973225;28;20041;-88
2022/03/02 00:06:34;;;;;;;;;;;13.20;99.90;;;;;;4973026;28;19910;-88
2022/03/02 00:08:59;;;;;;;;;;;13.20;99.90;;;;;;4972082;28;19957;-88
2022/03/02 00:11:27;;;;;;;;;;;13.20;99.90;;;;;;4967238;28;20523;-88
2022/03/02 00:13:53;;;;;;;;;;;13.20;99.90;;;;;;4953798;28;20398;-88
2022/03/02 00:16:19;;;;;;;;;;;13.10;99.90;;;;;;4954459;28;19910;-90
2022/03/02 00:18:44;;;;;;;;;;;13.10;99.90;;;;;;4972452;28;19914;-88
2022/03/02 00:21:10;;;;;;;;;;;13.10;99.90;;;;;;4968245;28;20593;-88
2022/03/02 00:23:35;;;;;;;;;;;13.00;99.90;;;;;;4936882;29;19910;-88
2022/03/02 00:26:01;;;;;;;;;;;13.00;99.90;;;;;;4970600;28;20395;-88
2022/03/02 00:28:27;;;;;;;;;;;13.10;99.90;;;;;;4956197;28;19911;-88
2022/03/02 00:30:52;;;;;;;;;;;13.10;99.90;;;;;;4936951;29;19918;-88
2022/03/02 00:33:18;;;;;;;;;;;13.10;99.90;;;;;;4956968;28;20426;-88
2022/03/02 00:35:44;;;;;;;;;;;13.10;99.90;;;;;;4972309;28;19914;-88
2022/03/02 00:38:10;;;;;;;;;;;13.20;99.90;;;;;;4966164;28;19918;-88
2022/03/02 00:40:37;;;;;;;;;;;13.20;99.90;;;;;;4957658;28;19910;-89
2022/03/02 00:43:03;;;;;;;;;;;13.20;99.90;;;;;;4953745;28;19910;-88
2022/03/02 00:45:29;;;;;;;;;;;13.20;99.90;;;;;;4936493;28;19910;-87
2022/03/02 00:47:54;;;;;;;;;;;13.20;99.90;;;;;;4967801;28;19921;-89
2022/03/02 00:50:21;;;;;;;;;;;13.20;99.90;;;;;;4958337;28;19910;-88
2022/03/02 00:52:47;;;;;;;;;;;13.20;99.90;;;;;;4954421;28;19918;-88
2022/03/02 00:55:13;;;;;;;;;;;13.10;99.90;;;;;;4972248;28;20065;-88
2022/03/02 00:57:38;;;;;;;;;;;13.10;99.90;;;;;;4970585;28;19910;-89
2022/03/02 01:00:04;;;;;;;;;;;13.10;99.90;;;;;;4942001;28;19914;-87
2022/03/02 01:02:30;;;;;;;;;;;13.10;99.90;;;;;;4959831;28;19965;-88
2022/03/02 01:04:56;;;;;;;;;;;13.00;99.90;;;;;;4946757;28;19911;-88
2022/03/02 01:07:21;;;;;;;;;;;13.00;99.90;;;;;;4936213;29;19953;-88
2022/03/02 01:09:47;;;;;;;;;;;13.10;99.90;;;;;;4971253;28;19920;-88
2022/03/02 01:12:12;;;;;;;;;;;13.10;99.90;;;;;;4942986;29;19922;-88
2022/03/02 01:14:38;;;;;;;;;;;13.00;99.90;;;;;;4952989;28;19911;-88
2022/03/02 01:17:04;;;;;;;;;;;13.00;99.90;;;;;;4959624;28;19911;-88
2022/03/02 01:19:29;;;;;;;;;;;13.00;99.90;;;;;;4953349;28;19911;-87
2022/03/02 01:21:55;;;;;;;;;;;13.10;99.90;;;;;;4953129;28;19972;-87
2022/03/02 01:24:20;;;;;;;;;;;13.10;99.90;;;;;;4953247;28;19946;-88
2022/03/02 01:26:46;;;;;;;;;;;13.10;99.90;;;;;;4962571;28;19965;-88
2022/03/02 01:29:12;;;;;;;;;;;13.00;99.90;;;;;;4960807;28;19910;-88
2022/03/02 01:31:38;;;;;;;;;;;12.90;99.90;;;;;;4968421;28;20013;-88
2022/03/02 01:34:04;;;;;;;;;;;13.00;99.90;;;;;;4971456;28;19941;-88
2022/03/02 01:36:29;;;;;;;;;;;13.00;99.90;;;;;;4963223;28;19933;-88
2022/03/02 01:38:55;;;;;;;;;;;13.00;99.90;;;;;;4953168;28;19954;-88
2022/03/02 01:41:22;;;;;;;;;;;13.00;99.90;;;;;;4953215;28;19965;-88
2022/03/02 01:43:49;;;;;;;;;;;12.90;99.90;;;;;;4953017;28;19952;-88
2022/03/02 01:46:15;;;;;;;;;;;12.80;99.90;;;;;;4966877;28;20012;-88
2022/03/02 01:48:41;;;;;;;;;;;12.80;99.90;;;;;;4971918;28;19914;-87
2022/03/02 01:51:07;;;;;;;;;;;12.80;99.90;;;;;;4964531;28;20020;-88
2022/03/02 01:53:32;;;;;;;;;;;12.70;99.90;;;;;;4959763;28;19919;-88
2022/03/02 01:55:59;;;;;;;;;;;12.80;99.90;;;;;;4952830;28;19915;-88
2022/03/02 01:58:25;;;;;;;;;;;12.80;99.90;;;;;;4941750;28;20532;-88
2022/03/02 02:00:51;;;;;;;;;;;12.70;99.90;;;;;;4952920;28;19911;-88
2022/03/02 02:03:17;;;;;;;;;;;12.70;99.90;;;;;;4972424;28;19914;-88
2022/03/02 02:05:42;;;;;;;;;;;12.70;99.90;;;;;;4975428;28;19910;-88
2022/03/02 02:08:08;;;;;;;;;;;12.70;99.90;;;;;;4957899;28;19917;-88
2022/03/02 02:10:34;;;;;;;;;;;12.70;99.90;;;;;;4974943;28;20394;-88
2022/03/02 02:12:59;;;;;;;;;;;12.70;99.90;;;;;;4957229;28;20013;-88
2022/03/02 02:15:25;;;;;;;;;;;12.70;99.90;;;;;;4974858;28;19918;-88
2022/03/02 02:17:50;;;;;;;;;;;12.70;99.90;;;;;;4970531;28;19910;-88
2022/03/02 02:20:16;;;;;;;;;;;12.70;99.90;;;;;;4956328;28;20387;-88
2022/03/02 02:22:48;;;;;;;;;;;12.70;99.90;;;;;;4956221;28;20291;-88
2022/03/02 02:25:14;;;;;;;;;;;12.70;99.90;;;;;;4938994;29;19997;-88
2022/03/02 02:27:40;;;;;;;;;;;12.70;99.90;;;;;;4962146;28;20418;-88
2022/03/02 02:30:06;;;;;;;;;;;12.70;99.90;;;;;;4965842;28;20009;-88
2022/03/02 02:32:32;;;;;;;;;;;12.70;99.90;;;;;;4962201;28;19918;-88
2022/03/02 02:34:58;;;;;;;;;;;12.70;99.90;;;;;;4971888;28;20360;-88
2022/03/02 02:37:27;;;;;;;;;;;12.70;99.90;;;;;;4958809;28;19910;-88
2022/03/02 02:39:57;;;;;;;;;;;12.70;99.90;;;;;;4962045;28;19917;-88
2022/03/02 02:42:24;;;;;;;;;;;12.70;99.90;;;;;;4956625;28;20492;-88
2022/03/02 02:44:49;;;;;;;;;;;12.70;99.90;;;;;;4965290;28;20076;-88
2022/03/02 02:47:15;;;;;;;;;;;12.60;99.90;;;;;;4964906;28;19918;-88
2022/03/02 02:49:40;;;;;;;;;;;12.60;99.90;;;;;;4959548;28;20005;-88
2022/03/02 02:52:06;;;;;;;;;;;12.60;99.90;;;;;;4955868;28;19939;-88
2022/03/02 02:54:32;;;;;;;;;;;12.60;99.90;;;;;;4956224;28;19915;-88
2022/03/02 02:56:57;;;;;;;;;;;12.50;99.90;;;;;;4963514;28;19910;-88
2022/03/02 02:59:24;;;;;;;;;;;12.50;99.90;;;;;;4973964;28;19910;-89
2022/03/02 03:01:50;;;;;;;;;;;12.50;99.90;;;;;;4966800;28;19938;-88
2022/03/02 03:04:15;;;;;;;;;;;12.40;99.90;;;;;;4955718;28;20283;-89
2022/03/02 03:06:41;;;;;;;;;;;12.40;99.90;;;;;;4956034;28;19911;-88
2022/03/02 03:09:07;;;;;;;;;;;12.40;99.90;;;;;;4961832;28;20001;-88
2022/03/02 03:11:32;;;;;;;;;;;12.40;99.90;;;;;;4967350;28;19922;-89
2022/03/02 03:13:58;;;;;;;;;;;12.40;99.90;;;;;;4955973;28;19914;-88
2022/03/02 03:16:24;;;;;;;;;;;12.40;99.90;;;;;;4973002;28;20013;-88
2022/03/02 03:18:49;;;;;;;;;;;12.40;99.90;;;;;;4973696;28;19917;-88
2022/03/02 03:21:15;;;;;;;;;;;12.40;99.90;;;;;;4956724;28;19910;-88
2022/03/02 03:23:40;;;;;;;;;;;12.30;99.90;;;;;;4973551;28;20009;-88
2022/03/02 03:26:06;;;;;;;;;;;12.30;99.90;;;;;;4956875;28;19918;-88
2022/03/02 03:28:32;;;;;;;;;;;12.30;99.90;;;;;;4961156;28;19918;-88
2022/03/02 03:30:57;;;;;;;;;;;12.30;99.90;;;;;;4955053;28;20455;-87
2022/03/02 03:33:23;;;;;;;;;;;12.30;99.90;;;;;;4955195;28;19973;-88
2022/03/02 03:35:48;;;;;;;;;;;12.30;99.90;;;;;;4941237;28;19910;-89
2022/03/02 03:38:14;;;;;;;;;;;12.30;99.90;;;;;;4958650;28;19914;-88
2022/03/02 03:40:39;;;;;;;;;;;12.20;99.90;;;;;;4963512;28;19914;-90
2022/03/02 03:43:05;;;;;;;;;;;12.20;99.90;;;;;;4973103;28;19941;-88
2022/03/02 03:45:30;;;;;;;;;;;12.20;99.90;;;;;;4955767;28;19917;-89
2022/03/02 03:47:56;;;;;;;;;;;12.20;99.90;;;;;;4973137;28;19956;-88
2022/03/02 03:50:22;;;;;;;;;;;12.20;99.90;;;;;;4973614;28;20267;-88
2022/03/02 03:52:48;;;;;;;;;;;12.20;99.90;;;;;;4966475;28;19925;-88
2022/03/02 03:55:14;;;;;;;;;;;12.20;99.90;;;;;;4961916;28;19912;-88
2022/03/02 03:57:40;;;;;;;;;;;12.10;99.90;;;;;;4955759;28;20524;-88
2022/03/02 04:00:14;;;;;;;;;;;12.10;99.90;;;;;;4973116;28;20460;-87
2022/03/02 04:02:39;;;;;;;;;;;12.10;99.90;;;;;;4955818;28;19937;-88
2022/03/02 04:05:05;;;;;;;;;;;12.10;99.90;;;;;;4972842;28;20532;-88
2022/03/02 04:07:30;;;;;;;;;;;12.10;99.90;;;;;;4972868;28;19910;-87
2022/03/02 04:09:56;;;;;;;;;;;12.10;99.90;;;;;;4972771;28;19917;-88
2022/03/02 04:12:22;;;;;;;;;;;12.10;99.90;;;;;;4965293;28;20362;-87
2022/03/02 04:14:48;;;;;;;;;;;12.00;99.90;;;;;;4954178;28;19914;-88
2022/03/02 04:17:13;;;;;;;;;;;12.00;99.90;;;;;;4972447;28;19997;-87
2022/03/02 04:19:39;;;;;;;;;;;12.00;99.90;;;;;;4972635;28;19953;-86
2022/03/02 04:22:05;;;;;;;;;;;12.00;99.90;;;;;;4960036;28;19953;-87
2022/03/02 04:24:30;;;;;;;;;;;12.00;99.90;;;;;;4972572;28;19982;-87
2022/03/02 04:26:56;;;;;;;;;;;12.10;99.90;;;;;;4971829;28;19961;-87
2022/03/02 04:29:21;;;;;;;;;;;12.00;99.90;;;;;;4972287;28;19910;-87
2022/03/02 04:31:47;;;;;;;;;;;11.90;99.90;;;;;;4951574;29;19989;-87
2022/03/02 04:34:12;;;;;;;;;;;12.00;99.90;;;;;;4964177;28;19910;-87
2022/03/02 04:36:38;;;;;;;;;;;12.00;99.90;;;;;;4972621;28;19910;-87
2022/03/02 04:39:04;;;;;;;;;;;11.90;99.90;;;;;;4966158;28;19917;-87
2022/03/02 04:41:29;;;;;;;;;;;12.00;99.90;;;;;;4968547;28;19935;-87
2022/03/02 04:43:55;;;;;;;;;;;11.90;99.90;;;;;;4955405;28;20001;-87
2022/03/02 04:46:20;;;;;;;;;;;11.90;99.90;;;;;;4940490;28;19945;-88
2022/03/02 04:48:46;;;;;;;;;;;11.80;99.90;;;;;;4955589;28;19910;-87
2022/03/02 04:51:11;;;;;;;;;;;11.90;99.90;;;;;;4956310;28;19961;-87
2022/03/02 04:53:37;;;;;;;;;;;11.90;99.90;;;;;;4963789;28;20510;-87
2022/03/02 04:56:02;;;;;;;;;;;11.90;99.90;;;;;;4958984;28;19910;-88
2022/03/02 04:58:28;;;;;;;;;;;11.90;99.90;;;;;;4969176;28;19918;-88
2022/03/02 05:00:54;;;;;;;;;;;11.90;99.90;;;;;;4964420;28;19910;-92
2022/03/02 05:03:19;;;;;;;;;;;11.90;99.90;;;;;;4969315;28;19910;-87
2022/03/02 05:05:45;;;;;;;;;;;11.90;99.90;;;;;;4962458;28;19925;-89
2022/03/02 05:08:11;;;;;;;;;;;11.90;99.90;;;;;;4984415;28;19910;-88
2022/03/02 05:10:36;;;;;;;;;;;11.70;99.90;;;;;;4973699;28;19922;-87
2022/03/02 05:13:02;;;;;;;;;;;11.80;99.90;;;;;;4979800;28;19922;-87
2022/03/02 05:15:28;;;;;;;;;;;11.70;99.90;;;;;;4966308;28;19924;-87
2022/03/02 05:17:53;;;;;;;;;;;11.70;99.90;;;;;;4981449;28;19981;-88
2022/03/02 05:20:20;;;;;;;;;;;11.80;99.90;;;;;;4971542;28;19910;-89
2022/03/02 05:22:46;;;;;;;;;;;11.80;99.90;;;;;;4973284;28;19917;-87
2022/03/02 05:25:13;;;;;;;;;;;11.90;99.90;;;;;;4972055;28;20407;-86
2022/03/02 05:27:39;;;;;;;;;;;11.90;99.90;;;;;;4961485;28;19956;-88
2022/03/02 05:30:05;;;;;;;;;;;11.80;99.90;;;;;;4981392;28;19922;-88
2022/03/02 05:32:32;;;;;;;;;;;11.80;99.90;;;;;;4982597;28;19919;-86
2022/03/02 05:34:58;;;;;;;;;;;11.80;99.90;;;;;;4983977;28;19910;-87
2022/03/02 05:37:23;;;;;;;;;;;11.80;99.90;;;;;;4973307;28;19914;-87
2022/03/02 05:39:49;;;;;;;;;;;11.70;99.90;;;;;;4973510;28;19965;-87
2022/03/02 05:42:14;;;;;;;;;;;11.70;99.90;;;;;;4971891;28;20411;-88
2022/03/02 05:44:40;;;;;;;;;;;11.60;99.90;;;;;;4961960;28;20399;-89
2022/03/02 05:47:06;;;;;;;;;;;11.50;99.90;;;;;;4955456;28;20269;-89
2022/03/02 05:49:31;;;;;;;;;;;11.40;99.90;;;;;;4956758;28;19911;-87
2022/03/02 05:51:57;;;;;;;;;;;11.50;99.90;;;;;;4956749;28;19918;-86
2022/03/02 05:54:23;;;;;;;;;;;11.50;99.90;;;;;;4963418;28;20474;-87
2022/03/02 05:56:48;;;;;;;;;;;11.50;99.90;;;;;;4969156;28;20533;-87
2022/03/02 05:59:14;;;;;;;;;;;11.50;99.90;;;;;;4956369;28;19911;-88
2022/03/02 06:01:40;;;;;;;;;;;11.40;99.90;;;;;;4975146;28;19972;-87
2022/03/02 06:04:06;;;;;;;;;;;11.40;99.90;;;;;;4945936;29;19910;-87
2022/03/02 06:06:32;;;;;;;;;;;11.40;99.90;;;;;;4956378;28;20519;-87
2022/03/02 06:08:59;;;;;;;;;;;11.40;99.90;;;;;;4962434;28;19910;-88
2022/03/02 06:11:25;;;;;;;;;;;11.40;99.90;;;;;;4948369;28;19986;-87
2022/03/02 06:13:51;;;;;;;;;;;11.50;99.90;;;;;;4967209;28;19926;-87
2022/03/02 06:16:17;;;;;;;;;;;11.30;99.90;;;;;;4956840;28;20342;-87
2022/03/02 06:18:43;;;;;;;;;;;11.40;99.90;;;;;;4968620;28;19917;-88
2022/03/02 06:21:14;;;;;;;;;;;11.40;99.90;;;;;;4955307;28;20387;-88
2022/03/02 06:23:39;;;;;;;;;;;11.30;99.90;;;;;;4943110;28;20165;-88
2022/03/02 06:26:05;;;;;;;;;;;11.30;99.90;;;;;;4963678;28;19914;-87
2022/03/02 06:28:31;;;;;;;;;;;11.20;99.90;;;;;;4957093;28;19911;-92
2022/03/02 06:30:57;;;;;;;;;;;11.20;99.90;;;;;;4949903;28;19913;-92
2022/03/02 06:33:22;;;;;;;;;;;11.10;99.90;;;;;;4975004;28;19918;-87
2022/03/02 06:35:48;;;;;;;;;;;11.10;99.90;;;;;;4957320;28;20391;-88
2022/03/02 06:38:14;;;;;;;;;;;11.10;99.90;;;;;;4974747;28;19914;-88
2022/03/02 06:40:41;;;;;;;;;;;11.00;99.90;;;;;;4966480;28;19911;-90
2022/03/02 06:43:08;;;;;;;;;;;11.00;99.90;;;;;;4955783;28;19910;-90
2022/03/02 06:45:44;;;;;;;;;;;11.00;99.90;;;;;;4939156;28;19918;-91
2022/03/02 06:48:11;;;;;;;;;;;11.00;99.90;;;;;;4939338;29;19911;-92
2022/03/02 06:50:38;;;;;;;;;;;11.00;99.90;;;;;;4953391;28;19906;-91
2022/03/02 06:53:08;;;;;;;;;;;10.90;99.90;;;;;;4958793;28;20246;-92
2022/03/02 06:55:34;;;;;;;;;;;10.90;99.90;;;;;;4959732;28;19906;-92
2022/03/02 06:58:00;;;;;;;;;;;10.80;99.90;;;;;;4958863;28;20267;-92
2022/03/02 07:00:26;;;;;;;;;;;10.80;99.90;;;;;;4959186;28;20254;-92
2022/03/02 07:02:58;;;;;;;;;;;10.80;99.90;;;;;;4959331;28;20195;-91
2022/03/02 07:05:25;;;;;;;;;;;10.90;99.90;;;;;;4949401;28;19910;-92
2022/03/02 07:07:51;;;;;;;;;;;10.90;99.90;;;;;;4964861;28;19906;-91
2022/03/02 07:10:17;;;;;;;;;;;10.80;99.90;;;;;;4959574;29;19919;-92
2022/03/02 07:12:43;;;;;;;;;;;10.80;99.90;;;;;;4965037;29;19969;-92
2022/03/02 07:15:10;;;;;;;;;;;10.80;99.90;;;;;;4965171;29;19913;-91
2022/03/02 07:17:35;;;;;;;;;;;10.80;99.90;;;;;;4964864;29;19914;-92
2022/03/02 07:20:03;;;;;;;;;;;10.90;99.90;;;;;;4958839;29;19911;-92
2022/03/02 07:22:32;;;;;;;;;;;10.90;99.90;;;;;;4954390;29;20399;-92
2022/03/02 07:25:00;;;;;;;;;;;11.00;99.90;;;;;;4955100;28;20380;-92
2022/03/02 07:27:26;;;;;;;;;;;10.90;99.90;;;;;;4953414;29;19911;-92
2022/03/02 07:29:53;;;;;;;;;;;10.80;99.90;;;;;;4953785;29;19915;-92
2022/03/02 07:32:28;;;;;;;;;;;10.80;99.90;;;;;;4953572;29;20347;-91
2022/03/02 07:34:55;;;;;;;;;;;10.70;99.90;;;;;;4954344;29;19918;-91
2022/03/02 07:37:21;;;;;;;;;;;10.80;99.90;;;;;;4955531;29;20335;-91
2022/03/02 07:39:47;;;;;;;;;;;10.70;99.90;;;;;;4955167;28;19917;-91
2022/03/02 07:42:13;;;;;;;;;;;10.80;99.90;;;;;;4952792;29;19911;-91
2022/03/02 07:44:41;;;;;;;;;;;10.80;99.90;;;;;;4952853;29;19911;-92
2022/03/02 07:47:07;;;;;;;;;;;10.90;99.90;;;;;;4954546;29;19910;-92
2022/03/02 07:49:33;;;;;;;;;;;11.00;99.90;;;;;;4955322;29;19917;-92
2022/03/02 07:52:01;;;;;;;;;;;11.00;99.90;;;;;;4953775;29;19922;-92
2022/03/02 07:54:28;;;;;;;;;;;11.00;99.90;;;;;;4956887;28;20371;-91
2022/03/02 07:56:55;;;;;;;;;;;10.90;99.90;;;;;;4953920;29;19911;-92
2022/03/02 07:59:21;;;;;;;;;;;10.90;99.90;;;;;;4955480;29;19944;-91
2022/03/02 08:01:46;;;;;;;;;;;10.90;99.90;;;;;;4962683;28;19907;-91
2022/03/02 08:04:14;;;;;;;;;;;10.90;99.90;;;;;;4980946;28;19959;-91
2022/03/02 08:06:40;;;;;;;;;;;10.90;99.90;;;;;;4954381;29;19911;-91
2022/03/02 08:09:07;;;;;;;;;;;10.80;99.90;;;;;;4954142;29;20387;-91
2022/03/02 08:11:34;;;;;;;;;;;10.80;99.90;;;;;;4939383;28;19922;-91
2022/03/02 08:14:00;;;;;;;;;;;10.90;99.90;;;;;;4956429;28;19914;-92
2022/03/02 08:16:27;;;;;;;;;;;11.00;99.90;;;;;;4956309;28;19910;-92
2022/03/02 08:18:52;;;;;;;;;;;11.00;99.90;;;;;;4972085;28;19914;-91
2022/03/02 08:21:20;;;;;;;;;;;11.10;99.90;;;;;;4955984;28;19910;-91
2022/03/02 08:23:48;;;;;;;;;;;11.10;99.90;;;;;;4949530;28;19941;-92
2022/03/02 08:26:18;;;;;;;;;;;11.10;99.90;;;;;;4972469;28;20401;-92
2022/03/02 08:28:44;;;;;;;;;;;11.20;99.90;;;;;;4955083;28;19910;-92
2022/03/02 08:31:10;;;;;;;;;;;11.30;99.90;;;;;;4955226;28;20290;-92
2022/03/02 08:33:37;;;;;;;;;;;11.30;99.90;;;;;;4955618;28;20476;-92
2022/03/02 08:36:03;;;;;;;;;;;11.40;99.90;;;;;;4955574;28;19910;-91
2022/03/02 08:38:29;;;;;;;;;;;11.50;99.90;;;;;;4972633;28;19957;-92
2022/03/02 08:40:55;;;;;;;;;;;11.60;99.90;;;;;;4955499;28;19910;-91
2022/03/02 08:43:21;;;;;;;;;;;11.60;99.90;;;;;;4950754;29;20367;-92
2022/03/02 08:45:48;;;;;;;;;;;11.60;99.90;;;;;;4937002;29;19910;-92
2022/03/02 08:48:17;;;;;;;;;;;11.70;99.90;;;;;;4936583;29;19915;-91
2022/03/02 08:50:44;;;;;;;;;;;11.70;99.90;;;;;;4936484;29;19934;-92
2022/03/02 08:53:14;;;;;;;;;;;11.70;99.90;;;;;;4936817;29;19973;-93
2022/03/02 08:55:41;;;;;;;;;;;11.80;99.90;;;;;;4946890;29;19918;-92
2022/03/02 08:58:06;;;;;;;;;;;12.00;99.90;;;;;;4950209;28;20302;-92
2022/03/02 09:00:32;;;;;;;;;;;12.10;99.90;;;;;;4951684;29;19936;-92
2022/03/02 09:02:59;;;;;;;;;;;12.10;99.90;;;;;;4946270;28;19930;-92
2022/03/02 09:05:26;;;;;;;;;;;12.00;99.90;;;;;;4965930;28;19910;-92
2022/03/02 09:07:52;;;;;;;;;;;12.10;99.90;;;;;;4939430;28;20000;-92
2022/03/02 09:10:18;;;;;;;;;;;12.10;99.90;;;;;;4934036;29;19983;-92
2022/03/02 09:12:44;;;;;;;;;;;12.10;99.90;;;;;;4938599;28;20005;-91
2022/03/02 09:15:09;;;;;;;;;;;12.10;99.90;;;;;;4947909;29;20430;-92
2022/03/02 09:17:36;;;;;;;;;;;12.10;99.90;;;;;;4952767;28;19914;-94
2022/03/02 09:20:02;;;;;;;;;;;12.00;99.90;;;;;;4938969;29;19911;-91
2022/03/02 09:22:29;;;;;;;;;;;11.90;99.90;;;;;;4951523;29;20434;-93
2022/03/02 09:24:55;;;;;;;;;;;11.80;99.90;;;;;;4939096;29;19910;-93
2022/03/02 09:27:21;;;;;;;;;;;11.80;99.90;;;;;;4944356;29;19922;-92
2022/03/02 09:29:47;;;;;;;;;;;11.80;99.90;;;;;;4934365;29;19911;-92
2022/03/02 09:32:13;;;;;;;;;;;11.90;99.90;;;;;;4934702;29;20269;-93
2022/03/02 09:34:42;;;;;;;;;;;11.90;99.90;;;;;;4933468;29;19934;-92
2022/03/02 09:37:12;;;;;;;;;;;12.00;99.90;;;;;;4946902;29;19914;-91
2022/03/02 09:39:37;;;;;;;;;;;12.00;99.90;;;;;;4952430;29;19964;-94
2022/03/02 09:42:08;;;;;;;;;;;12.10;99.90;;;;;;4945569;29;20001;-92
2022/03/02 09:44:44;;;;;;;;;;;12.10;99.90;;;;;;4934018;29;19911;-92
2022/03/02 09:47:13;;;;;;;;;;;12.20;99.90;;;;;;4933573;29;20442;-92
2022/03/02 09:49:41;;;;;;;;;;;12.20;99.90;;;;;;4933451;29;19918;-92
2022/03/02 09:52:08;;;;;;;;;;;12.30;99.90;;;;;;4932966;29;19915;-92
2022/03/02 09:54:36;;;;;;;;;;;12.40;99.90;;;;;;4954000;29;19910;-92
2022/03/02 09:57:03;;;;;;;;;;;12.40;99.90;;;;;;4950787;29;19942;-93
2022/03/02 09:59:32;;;;;;;;;;;12.40;99.90;;;;;;4939024;29;20387;-92
2022/03/02 10:02:01;;;;;;;;;;;12.40;99.90;;;;;;4953188;28;19933;-92
2022/03/02 10:04:28;;;;;;;;;;;12.50;99.90;;;;;;4952003;29;19910;-91
2022/03/02 10:07:26;;;;;;;;;;;12.70;99.90;;;;;;4951774;29;19911;-92
2022/03/02 10:09:46;;;;;;;;;;;12.70;99.90;;;;;;4935852;29;19978;-92
2022/03/02 10:12:14;;;;;;;;;;;12.60;99.90;;;;;;4954644;28;19922;-92
2022/03/02 10:14:41;;;;;;;;;;;12.60;99.90;;;;;;4967780;28;19945;-91
2022/03/02 10:17:09;;;;;;;;;;;12.70;99.90;;;;;;4955505;28;20359;-92
2022/03/02 10:19:35;;;;;;;;;;;12.80;99.90;;;;;;4967497;28;19910;-92
2022/03/02 10:22:01;;;;;;;;;;;12.90;99.90;;;;;;4953729;28;19911;-91
2022/03/02 10:24:29;;;;;;;;;;;13.00;99.90;;;;;;4969487;28;20001;-91
2022/03/02 10:26:56;;;;;;;;;;;13.20;99.90;;;;;;4958777;28;20486;-93
2022/03/02 10:29:34;;;;;;;;;;;13.40;99.90;;;;;;4965740;28;20049;-92
2022/03/02 10:32:05;;;;;;;;;;;13.60;99.90;;;;;;4955483;29;20039;-92
2022/03/02 10:34:32;;;;;;;;;;;13.60;99.90;;;;;;4959136;28;19917;-91
2022/03/02 10:37:04;;;;;;;;;;;13.50;99.90;;;;;;4975369;28;20399;-91
2022/03/02 10:39:38;;;;;;;;;;;13.40;99.90;;;;;;4949511;28;20351;-91
2022/03/02 10:42:05;;;;;;;;;;;13.20;99.90;;;;;;4968925;28;19910;-92
2022/03/02 10:45:03;;;;;;;;;;;13.30;99.90;;;;;;4958232;28;20291;-92
2022/03/02 10:47:29;;;;;;;;;;;13.40;99.90;;;;;;4913693;28;20392;-92
2022/03/02 10:49:57;;;;;;;;;;;13.80;99.90;;;;;;4958998;28;19910;-92
2022/03/02 10:52:24;;;;;;;;;;;14.10;99.90;;;;;;4958808;28;20081;-93
2022/03/02 10:54:53;;;;;;;;;;;14.30;99.90;;;;;;4959123;28;19911;-93
2022/03/02 10:57:19;;;;;;;;;;;14.40;99.90;;;;;;4962874;28;19968;-92
2022/03/02 10:59:45;;;;;;;;;;;14.80;99.90;;;;;;4975086;28;19968;-92
2022/03/02 11:02:11;;;;;;;;;;;15.00;99.90;;;;;;4955519;29;19911;-92
2022/03/02 11:04:43;;;;;;;;;;;14.80;99.90;;;;;;4955280;29;19914;-92
2022/03/02 11:07:10;;;;;;;;;;;14.70;99.90;;;;;;4955499;29;19917;-92
2022/03/02 11:09:37;;;;;;;;;;;14.50;99.90;;;;;;4958300;28;19914;-91
2022/03/02 11:12:03;;;;;;;;;;;14.30;99.90;;;;;;4950701;28;19937;-92
2022/03/02 11:14:29;;;;;;;;;;;14.10;99.90;;;;;;4954945;29;19915;-92
2022/03/02 11:17:13;;;;;;;;;;;13.90;99.90;;;;;;4955170;28;19921;-92
2022/03/02 11:19:43;;;;;;;;;;;13.80;99.90;;;;;;4960929;28;20375;-92
2022/03/02 11:22:08;;;;;;;;;;;13.80;99.90;;;;;;4952805;28;20010;-92
2022/03/02 11:24:35;;;;;;;;;;;13.90;99.90;;;;;;4962740;28;20382;-93
2022/03/02 11:27:01;;;;;;;;;;;13.80;99.90;;;;;;4969385;28;20363;-92
2022/03/02 11:29:28;;;;;;;;;;;13.80;99.90;;;;;;4972910;28;19957;-91
2022/03/02 11:31:57;;;;;;;;;;;13.60;99.90;;;;;;4951068;28;20010;-91
2022/03/02 11:34:27;;;;;;;;;;;13.50;99.90;;;;;;4968419;28;19910;-93
2022/03/02 11:36:53;;;;;;;;;;;13.70;99.90;;;;;;4954318;28;19954;-92
2022/03/02 11:39:20;;;;;;;;;;;13.70;99.90;;;;;;4938827;29;19922;-94
2022/03/02 11:41:46;;;;;;;;;;;13.50;99.90;;;;;;4943073;28;19914;-92
2022/03/02 11:44:32;;;;;;;;;;;13.40;99.90;;;;;;4947738;29;19910;-93
2022/03/02 11:47:00;;;;;;;;;;;13.30;99.90;;;;;;4966189;28;19910;-94
2022/03/02 11:49:45;;;;;;;;;;;13.40;99.90;;;;;;4955086;28;19914;-93
2022/03/02 11:52:12;;;;;;;;;;;13.40;99.90;;;;;;4974484;28;20445;-92
2022/03/02 11:54:41;;;;;;;;;;;13.40;99.90;;;;;;4948842;28;20507;-92
2022/03/02 11:57:06;;;;;;;;;;;13.50;99.90;;;;;;4938530;28;19933;-93
2022/03/02 11:59:35;;;;;;;;;;;13.60;99.90;;;;;;4963313;28;20276;-92
2022/03/02 12:02:10;;;;;;;;;;;13.50;99.90;;;;;;4964867;28;20005;-92
2022/03/02 12:04:36;;;;;;;;;;;13.60;99.90;;;;;;4938789;28;20078;-93
2022/03/02 12:07:03;;;;;;;;;;;13.60;99.90;;;;;;4957048;28;20101;-93
2022/03/02 12:09:30;;;;;;;;;;;13.60;99.90;;;;;;4957358;28;19966;-92
2022/03/02 12:12:20;;;;;;;;;;;13.70;99.90;;;;;;4957379;28;19926;-92
2022/03/02 12:14:48;;;;;;;;;;;13.70;99.90;;;;;;4960930;28;19910;-91
2022/03/02 12:17:20;;;;;;;;;;;13.90;99.90;;;;;;4946138;29;19910;-93
2022/03/02 12:19:48;;;;;;;;;;;13.90;99.90;;;;;;4945202;28;19966;-94
2022/03/02 12:22:14;;;;;;;;;;;13.90;99.90;;;;;;4958319;28;19957;-92
2022/03/02 12:24:40;;;;;;;;;;;14.00;99.90;;;;;;4952198;29;19965;-94
2022/03/02 12:27:07;;;;;;;;;;;14.00;99.90;;;;;;4946074;29;19914;-92
2022/03/02 12:29:33;;;;;;;;;;;14.00;99.90;;;;;;4943882;28;19927;-93
2022/03/02 12:32:06;;;;;;;;;;;14.10;99.90;;;;;;4946741;29;20363;-93
2022/03/02 12:34:38;;;;;;;;;;;14.00;99.90;;;;;;4968635;28;20005;-92
2022/03/02 12:37:04;;;;;;;;;;;13.90;99.90;;;;;;4950588;28;19973;-92
2022/03/02 12:39:31;;;;;;;;;;;13.70;99.90;;;;;;4952617;28;19910;-94
2022/03/02 12:41:57;;;;;;;;;;;13.70;99.90;;;;;;4958649;28;20283;-94
2022/03/02 12:44:23;;;;;;;;;;;13.50;99.90;;;;;;4958221;28;19910;-93
2022/03/02 12:46:51;;;;;;;;;;;13.50;99.90;;;;;;4956272;28;19910;-94
2022/03/02 12:49:17;;;;;;;;;;;13.60;99.90;;;;;;4957410;28;19910;-92
2022/03/02 12:51:46;;;;;;;;;;;13.70;99.90;;;;;;4960923;28;20391;-93
2022/03/02 12:54:12;;;;;;;;;;;13.70;99.90;;;;;;4944489;29;20371;-94
2022/03/02 12:56:38;;;;;;;;;;;13.90;99.90;;;;;;4954752;28;19938;-93
2022/03/02 12:59:04;;;;;;;;;;;14.00;99.90;;;;;;4942709;28;19910;-93
2022/03/02 13:01:30;;;;;;;;;;;14.10;99.90;;;;;;4939259;29;19910;-93
2022/03/02 13:03:57;;;;;;;;;;;14.10;99.90;;;;;;4948037;28;20364;-92
2022/03/02 13:06:27;;;;;;;;;;;14.10;99.90;;;;;;4956091;28;19921;-95
2022/03/02 13:08:56;;;;;;;;;;;14.10;99.90;;;;;;4956100;28;19910;-93
2022/03/02 13:11:24;;;;;;;;;;;14.20;99.90;;;;;;4956020;28;19922;-92
2022/03/02 13:13:49;;;;;;;;;;;14.20;99.90;;;;;;4944956;29;19918;-93
2022/03/02 13:16:16;;;;;;;;;;;14.30;99.90;;;;;;4937179;29;20407;-93
2022/03/02 13:18:42;;;;;;;;;;;14.10;99.90;;;;;;4941280;28;20393;-93
2022/03/02 13:21:07;;;;;;;;;;;14.30;99.90;;;;;;4939625;29;19910;-93
2022/03/02 13:23:34;;;;;;;;;;;14.50;99.90;;;;;;4953408;28;19910;-94
2022/03/02 13:26:03;;;;;;;;;;;14.50;99.90;;;;;;4949798;28;21087;-93
2022/03/02 13:28:31;;;;;;;;;;;14.50;99.90;;;;;;4952193;29;19911;-93
2022/03/02 13:31:09;;;;;;;;;;;14.30;99.90;;;;;;4964827;28;19964;-93
2022/03/02 13:33:50;;;;;;;;;;;14.30;99.90;;;;;;4955844;28;19922;-93
2022/03/02 13:36:31;;;;;;;;;;;14.20;99.90;;;;;;4959989;29;19921;-93
2022/03/02 13:39:05;;;;;;;;;;;14.10;99.90;;;;;;4963681;28;19910;-94
2022/03/02 13:41:42;;;;;;;;;;;14.10;99.90;;;;;;4953021;28;19911;-93
2022/03/02 13:44:25;;;;;;;;;;;13.90;99.90;;;;;;4953867;28;19914;-94
2022/03/02 13:47:15;;;;;;;;;;;13.90;99.90;;;;;;4950335;29;19917;-92
2022/03/02 13:49:50;;;;;;;;;;;13.90;99.90;;;;;;4937264;28;19917;-93
2022/03/02 13:52:17;;;;;;;;;;;13.90;99.90;;;;;;4937351;28;19918;-94
2022/03/02 13:54:43;;;;;;;;;;;13.70;99.90;;;;;;4940499;28;20383;-92
2022/03/02 13:57:18;;;;;;;;;;;13.50;99.90;;;;;;4969494;28;19934;-93
2022/03/02 13:59:43;;;;;;;;;;;13.30;99.90;;;;;;4956382;28;20402;-92
2022/03/02 14:02:09;;;;;;;;;;;13.20;99.90;;;;;;4941293;28;20001;-93
2022/03/02 14:04:35;;;;;;;;;;;13.20;99.90;;;;;;4973910;28;19918;-95
2022/03/02 14:07:04;;;;;;;;;;;13.10;99.90;;;;;;4964535;28;19915;-93
2022/03/02 14:09:30;;;;;;;;;;;13.20;99.90;;;;;;4973532;28;19910;-94
2022/03/02 14:11:57;;;;;;;;;;;13.40;99.90;;;;;;4940509;28;19965;-93
2022/03/02 14:14:24;;;;;;;;;;;13.50;99.90;;;;;;4955870;28;19922;-92
2022/03/02 14:16:53;;;;;;;;;;;13.70;99.90;;;;;;4957929;28;19910;-93